Terminal Aerodrome Forecast
Issued by NWS Twin Cities, MN

Home | Current Version | Previous Version | Graphics & Text | Print | Product List | Glossary On
Versions: 1 2 3 4 5 6 7 8 9 10 11 12 13 14 15
000
FTUS43 KMPX 240539
TAFSTC
TAF
KSTC 240539Z 2406/2506 11006KT P6SM OVC100
     FM241200 12007KT P6SM BKN050
     FM241500 13012G17KT 6SM -SHRA OVC035
     FM241800 12014G21KT 6SM -SHRA OVC020
     FM250000 11013KT 4SM BR OVC009=

USA.gov is the U.S. government's official web portal to all federal, state and local government web resources and services.